Aeroporto :







RITROVATECI SU...

 
LOGIN :

Iscrizione | Disclaimer

   EN    FR    IT 

 









Sommario :    VFR   VFR Marginale   IFR   IFR Intensivo   IFR Molto Intensivo
Visibilità : 
Base nubi : 
>= 8 km
>= 3000ft
5 / 8 km
1000 / 3000 ft
1500m / 5 km
500 / 1000 ft
800 / 1500m
200 / 500 ft
< 800m
< 200 ft
Simboli :   Temporali  Nebbia  Neve Forte  Precipitazioni Forti  Vento > 20 kt






- Altitudine del aeroporto : 352 ft


KAUG - Augusta State

ULTIMO METAR :
  • 160753Z AUTO 28011G22KT 250V310 10SM CLR M07/M17 A2997 RMK AO2 PK WND 29026/0737 SLP154 T10671167

METARs OBSOLETI :
  • 160653Z AUTO 28011KT 10SM CLR M06/M16 A2995 RMK AO2 SLP146 T10611161
  • 160553Z AUTO 30010G24KT 10SM CLR M06/M16 A2992 RMK AO2 PK WND 28028/0526 SLP135 T10561161 10006 21056 51038

TAF KAUG
Valido dal 16 a 06 ore il 17 a 06 ore UTC


160520Z 1606/1706 29012G20KT P6SM FEW050
FM161900 28008KT P6SM SKC



MetMap, La meteo Aeronautica in un colpo d'occhio ! - Copyright ORBIFLY Dicembre 2007 - Disclaimer

ORBIFLY MET'MAP TEAM :

Programmazione e sviluppo : Alexandra Zaïnal
Concezione : Baudouin d'Aumeries
Aiuto per la programmazione : Marc-Olivier Méhu
Supporto tecnico e logistico : Manuel Goepfert
Aiuto per la traduzione : Arnaldo La Scala

Contatto : metmap@orbifly.com




FONTI E CREDITI :

   NOAA